createdAt,value
2022-11-23T00:01:27.300Z,12.70
2022-11-23T00:06:12.749Z,12.27
2022-11-23T00:11:01.142Z,12.75
2022-11-23T00:15:46.463Z,12.82
2022-11-23T00:20:34.198Z,11.00
2022-11-23T00:25:19.634Z,10.98
2022-11-23T00:30:04.724Z,12.27
2022-11-23T00:34:50.048Z,13.20
2022-11-23T00:39:37.695Z,10.68
2022-11-23T00:44:22.961Z,10.98
2022-11-23T00:49:07.943Z,12.48
2022-11-23T00:53:54.132Z,11.90
2022-11-23T00:58:41.907Z,10.75
2022-11-23T01:03:27.199Z,10.73
2022-11-23T01:08:12.404Z,10.57
2022-11-23T01:12:57.677Z,10.15
2022-11-23T01:17:45.276Z,10.75
2022-11-23T01:22:30.568Z,9.32
2022-11-23T01:27:15.576Z,8.63
2022-11-23T01:32:00.875Z,7.47
2022-11-23T01:36:48.803Z,7.53
2022-11-23T01:41:35.978Z,7.88
2022-11-23T01:46:21.731Z,7.55
2022-11-23T01:51:10.871Z,7.47
2022-11-23T01:56:02.527Z,9.20
2022-11-23T02:00:47.945Z,8.20
2022-11-23T02:05:37.100Z,7.47
2022-11-23T02:10:23.599Z,7.25
2022-11-23T02:15:12.136Z,7.60
2022-11-23T02:20:06.967Z,5.40
2022-11-23T02:24:57.040Z,5.43
2022-11-23T02:29:45.307Z,6.40
2022-11-23T02:34:30.491Z,5.20
2022-11-23T02:39:18.724Z,5.68
2022-11-23T02:44:03.940Z,5.22
2022-11-23T02:48:51.792Z,4.57
2022-11-23T02:53:37.211Z,5.18
2022-11-23T02:58:22.503Z,4.90
2022-11-23T03:03:07.885Z,4.60
2022-11-23T03:07:55.797Z,5.97
2022-11-23T03:12:40.856Z,5.55
2022-11-23T03:17:27.740Z,4.75
2022-11-23T03:22:12.918Z,5.03
2022-11-23T03:27:00.943Z,4.93
2022-11-23T03:31:45.965Z,4.70
2022-11-23T03:36:31.237Z,3.70
2022-11-23T03:41:16.270Z,3.50
2022-11-23T03:46:04.165Z,2.97
2022-11-23T03:50:49.146Z,3.10
2022-11-23T03:55:34.682Z,3.05
2022-11-23T04:00:20.037Z,2.92
2022-11-23T04:05:08.769Z,3.05
2022-11-23T04:09:54.289Z,3.08
2022-11-23T04:14:39.816Z,2.33
2022-11-23T04:19:25.203Z,2.30
2022-11-23T04:24:13.173Z,2.78
2022-11-23T04:28:58.198Z,2.75
2022-11-23T04:33:43.493Z,2.60
2022-11-23T04:38:28.531Z,2.70
2022-11-23T04:43:16.432Z,3.10
2022-11-23T04:48:01.403Z,2.55
2022-11-23T04:52:46.918Z,3.15
2022-11-23T04:57:31.951Z,2.83
2022-11-23T05:02:19.818Z,2.60
2022-11-23T05:07:04.888Z,2.72
2022-11-23T05:11:50.179Z,2.60
2022-11-23T05:16:35.364Z,2.88
2022-11-23T05:21:23.478Z,3.00
2022-11-23T05:26:08.839Z,3.20
2022-11-23T05:30:54.481Z,3.33
2022-11-23T05:35:39.557Z,2.90
2022-11-23T05:40:27.786Z,2.42
2022-11-23T05:45:13.524Z,2.78
2022-11-23T05:49:58.956Z,2.40
2022-11-23T05:54:43.981Z,2.85
2022-11-23T05:59:32.196Z,2.35
2022-11-23T06:04:17.739Z,2.05
2022-11-23T06:09:03.267Z,2.38
2022-11-23T06:13:49.703Z,2.30
2022-11-23T06:18:37.715Z,2.30
2022-11-23T06:23:25.675Z,2.50
2022-11-23T06:28:11.118Z,1.80
2022-11-23T06:32:56.115Z,1.90
2022-11-23T06:37:44.039Z,2.45
2022-11-23T06:42:39.063Z,2.03
2022-11-23T06:47:26.587Z,2.65
2022-11-23T06:52:11.991Z,2.80
2022-11-23T06:56:59.868Z,3.20
2022-11-23T07:01:44.918Z,2.10
2022-11-23T07:06:30.228Z,2.25
2022-11-23T07:11:15.300Z,1.90
2022-11-23T07:16:03.318Z,2.03
2022-11-23T07:20:48.401Z,1.65
2022-11-23T07:25:34.464Z,2.30
2022-11-23T07:30:19.884Z,2.17
2022-11-23T07:35:08.590Z,2.70
2022-11-23T07:45:33.184Z,3.30
2022-11-23T07:50:21.571Z,3.33
2022-11-23T07:55:07.912Z,3.60
2022-11-23T07:59:53.292Z,3.70
2022-11-23T08:04:38.680Z,3.00
2022-11-23T08:09:26.576Z,3.13
2022-11-23T08:14:12.003Z,5.13
2022-11-23T08:18:57.036Z,3.80
2022-11-23T08:23:42.385Z,4.85
2022-11-23T08:28:30.275Z,5.55
2022-11-23T08:33:16.452Z,5.82
2022-11-23T08:38:01.534Z,6.53
2022-11-23T08:42:46.889Z,7.20
2022-11-23T08:47:34.815Z,8.93
2022-11-23T08:52:20.202Z,8.23
2022-11-23T08:57:05.580Z,7.15
2022-11-23T09:01:50.652Z,6.65
2022-11-23T09:06:38.883Z,7.32
2022-11-23T09:11:24.194Z,5.80
2022-11-23T09:16:10.769Z,5.40
2022-11-23T09:20:56.067Z,5.25
2022-11-23T09:25:47.907Z,5.00
2022-11-23T09:30:33.160Z,5.13
2022-11-23T09:35:18.631Z,5.18
2022-11-23T09:40:03.667Z,5.47
2022-11-23T09:45:10.211Z,5.05
2022-11-23T09:50:04.918Z,5.25
2022-11-23T09:54:52.782Z,5.55
2022-11-23T09:59:44.115Z,5.80
2022-11-23T10:04:36.868Z,5.28
2022-11-23T10:09:33.785Z,5.78
2022-11-23T10:14:35.559Z,5.85
2022-11-23T10:24:22.219Z,7.03
2022-11-23T10:29:15.882Z,6.50
2022-11-23T10:34:07.572Z,6.57
2022-11-23T10:38:57.369Z,6.80
2022-11-23T10:43:50.805Z,6.40
2022-11-23T10:48:38.841Z,6.25
2022-11-23T10:53:28.683Z,6.53
2022-11-23T10:58:28.627Z,6.82
2022-11-23T11:03:26.685Z,7.25
2022-11-23T11:08:17.968Z,9.85
2022-11-23T11:13:03.366Z,3.45
2022-11-23T11:17:59.048Z,3.90
2022-11-23T11:22:48.027Z,4.80
2022-11-23T11:27:34.491Z,5.60
2022-11-23T11:32:26.197Z,5.13
2022-11-23T11:37:16.839Z,5.55
2022-11-23T11:42:10.141Z,6.25
2022-11-23T11:47:03.136Z,6.20
2022-11-23T11:51:51.790Z,7.10
2022-11-23T11:56:42.083Z,6.78
2022-11-23T12:01:39.156Z,6.55
2022-11-23T12:06:30.348Z,6.63
2022-11-23T12:11:16.269Z,5.80
2022-11-23T12:16:13.170Z,5.00
2022-11-23T12:21:07.057Z,4.45
2022-11-23T12:26:01.063Z,4.90
2022-11-23T12:30:55.925Z,4.95
2022-11-23T12:35:52.243Z,5.18
2022-11-23T12:41:09.837Z,6.10
2022-11-23T12:46:13.250Z,5.95
2022-11-23T12:51:10.586Z,5.90
2022-11-23T12:56:02.156Z,7.40
2022-11-23T13:00:54.945Z,6.90
2022-11-23T13:06:09.952Z,6.72
2022-11-23T13:11:05.598Z,6.90
2022-11-23T13:16:22.227Z,5.35
2022-11-23T13:21:20.665Z,4.80
2022-11-23T13:26:19.740Z,4.35
2022-11-23T13:31:27.053Z,4.10
2022-11-23T13:36:19.733Z,4.75
2022-11-23T13:41:05.894Z,5.68
2022-11-23T13:46:29.662Z,4.38
2022-11-23T13:51:25.099Z,4.97
2022-11-23T13:56:27.431Z,4.65
2022-11-23T14:01:13.353Z,6.68
2022-11-23T14:06:04.383Z,5.53
2022-11-23T14:10:52.230Z,6.15
2022-11-23T14:15:40.531Z,5.35
2022-11-23T14:21:00.019Z,6.72
2022-11-23T14:25:58.022Z,7.60
2022-11-23T14:30:54.867Z,5.63
2022-11-23T14:35:51.236Z,7.05
2022-11-23T14:40:57.667Z,6.18
2022-11-23T14:45:44.215Z,4.47
2022-11-23T14:50:31.721Z,3.30
2022-11-23T14:55:22.752Z,3.10
2022-11-23T15:00:32.320Z,2.90
2022-11-23T15:05:25.037Z,3.58
2022-11-23T15:10:20.092Z,4.05
2022-11-23T15:15:05.507Z,3.88
2022-11-23T15:20:00.967Z,4.38
2022-11-23T15:24:47.383Z,4.30
2022-11-23T15:29:37.803Z,4.40
2022-11-23T15:34:24.669Z,4.95
2022-11-23T15:39:20.470Z,4.50
2022-11-23T15:44:20.103Z,5.95
2022-11-23T15:49:07.471Z,5.50
2022-11-23T15:53:54.160Z,6.57
2022-11-23T15:58:42.204Z,6.10
2022-11-23T16:03:37.861Z,5.63
2022-11-23T16:08:28.272Z,5.47
2022-11-23T16:13:37.310Z,5.10
2022-11-23T16:18:32.033Z,5.20
2022-11-23T16:23:23.075Z,5.70
2022-11-23T16:28:16.489Z,4.35
2022-11-23T16:33:01.812Z,5.80
2022-11-23T16:37:50.195Z,6.38
2022-11-23T16:42:35.296Z,6.82
2022-11-23T16:47:26.706Z,5.80
2022-11-23T16:52:11.920Z,6.03
2022-11-23T16:56:59.871Z,5.82
2022-11-23T17:01:46.672Z,6.20
2022-11-23T17:06:32.222Z,5.95
2022-11-23T17:11:18.696Z,7.13
2022-11-23T17:16:07.151Z,6.35
2022-11-23T17:20:52.249Z,6.68
2022-11-23T17:25:38.895Z,6.00
2022-11-23T17:30:26.799Z,6.72
2022-11-23T17:35:14.775Z,6.55
2022-11-23T17:39:59.842Z,7.50
2022-11-23T17:44:45.311Z,7.20
2022-11-23T17:49:31.364Z,7.05
2022-11-23T17:54:19.765Z,8.20
2022-11-23T17:59:05.101Z,8.65
2022-11-23T18:03:50.791Z,6.82
2022-11-23T18:08:35.983Z,9.05
2022-11-23T18:13:23.977Z,7.22
2022-11-23T18:18:09.170Z,7.82
2022-11-23T18:22:54.640Z,6.60
2022-11-23T18:27:39.954Z,6.88
2022-11-23T18:32:28.071Z,8.20
2022-11-23T18:37:13.117Z,7.60
2022-11-23T18:42:04.105Z,6.70
2022-11-23T18:46:50.786Z,7.78
2022-11-23T18:51:38.811Z,7.85
2022-11-23T18:56:24.177Z,6.72
2022-11-23T19:01:12.497Z,6.57
2022-11-23T19:06:04.497Z,8.23
2022-11-23T19:10:52.457Z,6.40
2022-11-23T19:15:39.764Z,7.75
2022-11-23T19:20:25.805Z,7.15
2022-11-23T19:25:12.199Z,6.40
2022-11-23T19:29:59.812Z,6.60
2022-11-23T19:34:45.155Z,7.72
2022-11-23T19:39:30.602Z,6.00
2022-11-23T19:44:16.167Z,4.15
2022-11-23T19:49:05.386Z,5.55
2022-11-23T19:53:51.927Z,5.15
2022-11-23T19:58:38.019Z,4.60
2022-11-23T20:03:23.127Z,4.18
2022-11-23T20:08:11.574Z,4.32
2022-11-23T20:12:56.636Z,4.25
2022-11-23T20:17:42.084Z,4.63
2022-11-23T20:22:27.712Z,4.63
2022-11-23T20:27:16.350Z,4.70
2022-11-23T20:32:01.738Z,4.47
2022-11-23T20:36:47.297Z,4.85
2022-11-23T20:41:34.741Z,5.10
2022-11-23T20:46:45.632Z,5.32
2022-11-23T20:51:28.661Z,5.50
2022-11-23T20:56:15.100Z,5.70
2022-11-23T21:01:05.208Z,4.93
2022-11-23T21:05:52.918Z,6.07
2022-11-23T21:10:50.679Z,5.68
2022-11-23T21:15:36.068Z,6.32
2022-11-23T21:20:21.373Z,5.50
2022-11-23T21:25:10.208Z,6.00
2022-11-23T21:29:55.334Z,5.85
2022-11-23T21:34:40.715Z,5.55
2022-11-23T21:39:26.463Z,7.00
2022-11-23T21:44:15.292Z,13.57
2022-11-23T21:49:01.909Z,9.30
2022-11-23T21:53:47.081Z,6.72
2022-11-23T21:58:32.636Z,7.43
2022-11-23T22:03:20.289Z,8.82
2022-11-23T22:13:11.159Z,20.38
2022-11-23T22:17:56.502Z,15.88
2022-11-23T22:22:44.240Z,8.77
2022-11-23T22:27:29.600Z,8.20
2022-11-23T22:32:14.962Z,9.63
2022-11-23T22:37:00.029Z,10.18
2022-11-23T22:41:48.072Z,17.35
2022-11-23T22:46:33.165Z,14.02
2022-11-23T22:51:20.286Z,12.38
2022-11-23T22:56:07.487Z,11.63
2022-11-23T23:00:56.142Z,11.40
2022-11-23T23:05:41.747Z,9.57
2022-11-23T23:10:28.089Z,8.32
2022-11-23T23:15:14.480Z,7.88
2022-11-23T23:20:02.258Z,10.70
2022-11-23T23:24:47.896Z,8.27
2022-11-23T23:29:33.715Z,13.07
2022-11-23T23:34:19.230Z,17.15
2022-11-23T23:39:08.846Z,9.77
2022-11-23T23:43:54.408Z,8.07
2022-11-23T23:48:41.139Z,7.00
2022-11-23T23:53:26.692Z,6.95
2022-11-23T23:58:14.686Z,9.27
